EZY4TU EGGD-LOWI
Flight info
| Callsign | EZY4TU |
|---|---|
| Flight time | 2h 1m |
| Altitude | 35000 |
| Route | YORQI DCT NUCHU L607 KONAN UL607 MATUG DCT AMASI DCT BOMBI T104 WLD M867 BAVAX Z106 MANAL M736 TULSI TULSI3A |
| Aircraft | A320/M-SDE3FGHIRWY/LB1 |
Departure
| Time | 2026-05-04 12:06 |
|---|---|
| Airport | Bristol Airport (EGGD) |
Arrival
| Time | 2026-05-04 14:07 |
|---|---|
| Airport | Innsbruck Airport (LOWI) |
| Time | Latitude | Longitude | Altitude | Speed | Heading |
|---|---|---|---|---|---|
| 2026-05-04 11:29 | 51.38553 | -2.71018 | 625 ft | 0 kts | 356° |
| 2026-05-04 11:35 | 51.38552 | -2.71018 | 612 ft | 0 kts | 356° |
| 2026-05-04 11:55 | 51.38462 | -2.70944 | 614 ft | 2 kts | 266° |
| 2026-05-04 11:58 | 51.38462 | -2.70957 | 614 ft | 2 kts | 266° |
| 2026-05-04 11:58 | 51.38461 | -2.70989 | 617 ft | 4 kts | 266° |
| 2026-05-04 11:58 | 51.38459 | -2.71043 | 619 ft | 6 kts | 266° |
| 2026-05-04 11:58 | 51.38456 | -2.71112 | 617 ft | 7 kts | 266° |
| 2026-05-04 11:59 | 51.38453 | -2.71189 | 623 ft | 7 kts | 268° |
| 2026-05-04 11:59 | 51.38451 | -2.71273 | 618 ft | 9 kts | 267° |
| 2026-05-04 11:59 | 51.38446 | -2.71399 | 614 ft | 16 kts | 265° |
| 2026-05-04 11:59 | 51.38436 | -2.71616 | 607 ft | 21 kts | 264° |
| 2026-05-04 12:00 | 51.38429 | -2.71848 | 610 ft | 19 kts | 266° |
| 2026-05-04 12:00 | 51.38428 | -2.72076 | 612 ft | 21 kts | 266° |
| 2026-05-04 12:00 | 51.38421 | -2.72284 | 612 ft | 19 kts | 266° |
| 2026-05-04 12:00 | 51.38412 | -2.72501 | 615 ft | 21 kts | 267° |
| 2026-05-04 12:01 | 51.38403 | -2.72755 | 622 ft | 25 kts | 266° |
| 2026-05-04 12:01 | 51.38392 | -2.73015 | 615 ft | 18 kts | 268° |
| 2026-05-04 12:02 | 51.38386 | -2.73164 | 615 ft | 0 kts | 265° |
| 2026-05-04 12:03 | 51.38384 | -2.73216 | 615 ft | 12 kts | 266° |
| 2026-05-04 12:03 | 51.38346 | -2.73332 | 621 ft | 10 kts | 206° |
| 2026-05-04 12:03 | 51.38293 | -2.73344 | 618 ft | 1 kts | 178° |
| 2026-05-04 12:04 | 51.38286 | -2.73343 | 619 ft | 6 kts | 176° |
| 2026-05-04 12:04 | 51.38220 | -2.73275 | 628 ft | 13 kts | 111° |
| 2026-05-04 12:04 | 51.38218 | -2.73166 | 632 ft | 0 kts | 86° |
| 2026-05-04 12:05 | 51.38218 | -2.73165 | 632 ft | 3 kts | 86° |
| 2026-05-04 12:05 | 51.38233 | -2.72746 | 629 ft | 75 kts | 85° |
| 2026-05-04 12:05 | 51.38280 | -2.71564 | 616 ft | 136 kts | 86° |
| 2026-05-04 12:05 | 51.38340 | -2.69943 | 1082 ft | 145 kts | 87° |
| 2026-05-04 12:06 | 51.38385 | -2.68311 | 1766 ft | 151 kts | 86° |
| 2026-05-04 12:06 | 51.38436 | -2.66517 | 2133 ft | 171 kts | 87° |
| 2026-05-04 12:06 | 51.38497 | -2.64496 | 2353 ft | 193 kts | 88° |
| 2026-05-04 12:06 | 51.38567 | -2.62239 | 2602 ft | 215 kts | 87° |
| 2026-05-04 12:07 | 51.38646 | -2.59716 | 2965 ft | 239 kts | 88° |
| 2026-05-04 12:07 | 51.38817 | -2.56974 | 3542 ft | 254 kts | 74° |
| 2026-05-04 12:07 | 51.39797 | -2.54598 | 4315 ft | 264 kts | 40° |
| 2026-05-04 12:07 | 51.41336 | -2.53016 | 5170 ft | 269 kts | 32° |
| 2026-05-04 12:08 | 51.42970 | -2.51538 | 6062 ft | 271 kts | 30° |
| 2026-05-04 12:08 | 51.44634 | -2.50076 | 6896 ft | 274 kts | 31° |
| 2026-05-04 12:08 | 51.46282 | -2.48478 | 7666 ft | 279 kts | 40° |
| 2026-05-04 12:08 | 51.47554 | -2.46140 | 8407 ft | 282 kts | 63° |
| 2026-05-04 12:09 | 51.48116 | -2.43141 | 9148 ft | 284 kts | 88° |
| 2026-05-04 12:09 | 51.48111 | -2.39960 | 9805 ft | 289 kts | 93° |
| 2026-05-04 12:09 | 51.48064 | -2.36718 | 9983 ft | 292 kts | 94° |
| 2026-05-04 12:09 | 51.48010 | -2.33392 | 10029 ft | 317 kts | 94° |
| 2026-05-04 12:10 | 51.47948 | -2.29730 | 10287 ft | 332 kts | 93° |
| 2026-05-04 12:10 | 51.47886 | -2.25917 | 10564 ft | 353 kts | 93° |
| 2026-05-04 12:10 | 51.47820 | -2.21870 | 10834 ft | 370 kts | 93° |
| 2026-05-04 12:10 | 51.47754 | -2.17719 | 11423 ft | 375 kts | 93° |
| 2026-05-04 12:11 | 51.47688 | -2.13511 | 12091 ft | 379 kts | 93° |
| 2026-05-04 12:11 | 51.47622 | -2.09274 | 12757 ft | 382 kts | 93° |
| 2026-05-04 12:11 | 51.47556 | -2.04989 | 13396 ft | 386 kts | 93° |
| 2026-05-04 12:11 | 51.47490 | -2.00675 | 14014 ft | 389 kts | 93° |
| 2026-05-04 12:12 | 51.47423 | -1.96376 | 14570 ft | 392 kts | 93° |
| 2026-05-04 12:12 | 51.47351 | -1.91995 | 15129 ft | 395 kts | 93° |
| 2026-05-04 12:12 | 51.47274 | -1.87570 | 15630 ft | 399 kts | 93° |
| 2026-05-04 12:12 | 51.47192 | -1.83111 | 16162 ft | 402 kts | 93° |
| 2026-05-04 12:13 | 51.47104 | -1.78623 | 16736 ft | 404 kts | 94° |
| 2026-05-04 12:14 | 51.44077 | -1.47027 | 20107 ft | 419 kts | 104° |
| 2026-05-04 12:15 | 51.43450 | -1.42452 | 20546 ft | 422 kts | 104° |
| 2026-05-04 12:15 | 51.42816 | -1.37836 | 20921 ft | 426 kts | 104° |
| 2026-05-04 12:15 | 51.42172 | -1.33180 | 21314 ft | 429 kts | 104° |
| 2026-05-04 12:15 | 51.41525 | -1.28500 | 21728 ft | 432 kts | 104° |
| 2026-05-04 12:16 | 51.40878 | -1.23857 | 22119 ft | 434 kts | 104° |
| 2026-05-04 12:16 | 51.40217 | -1.19129 | 22501 ft | 437 kts | 104° |
| 2026-05-04 12:16 | 51.39625 | -1.14339 | 22869 ft | 440 kts | 99° |
| 2026-05-04 12:16 | 51.39351 | -1.09439 | 23231 ft | 444 kts | 96° |
| 2026-05-04 12:17 | 51.39105 | -1.04502 | 23592 ft | 446 kts | 96° |
| 2026-05-04 12:17 | 51.38853 | -0.99548 | 23901 ft | 448 kts | 96° |
| 2026-05-04 12:17 | 51.38594 | -0.94551 | 24203 ft | 451 kts | 97° |
| 2026-05-04 12:17 | 51.38330 | -0.89531 | 24446 ft | 454 kts | 97° |
| 2026-05-04 12:18 | 51.38067 | -0.84550 | 24709 ft | 457 kts | 97° |
| 2026-05-04 12:18 | 51.37795 | -0.79401 | 25015 ft | 459 kts | 97° |
| 2026-05-04 12:18 | 51.37527 | -0.74384 | 25305 ft | 461 kts | 97° |
| 2026-05-04 12:18 | 51.37251 | -0.69247 | 25588 ft | 463 kts | 97° |
| 2026-05-04 12:19 | 51.36974 | -0.64114 | 25870 ft | 465 kts | 97° |
| 2026-05-04 12:19 | 51.36690 | -0.58957 | 26145 ft | 466 kts | 97° |
| 2026-05-04 12:19 | 51.36402 | -0.53778 | 26413 ft | 468 kts | 98° |
| 2026-05-04 12:19 | 51.36113 | -0.48579 | 26674 ft | 470 kts | 98° |
| 2026-05-04 12:20 | 51.35823 | -0.43359 | 26944 ft | 471 kts | 98° |
| 2026-05-04 12:20 | 51.35529 | -0.38144 | 27322 ft | 470 kts | 98° |
| 2026-05-04 12:20 | 51.35232 | -0.32948 | 27689 ft | 469 kts | 98° |
| 2026-05-04 12:20 | 51.34937 | -0.27820 | 28064 ft | 468 kts | 98° |
| 2026-05-04 12:21 | 51.34639 | -0.22675 | 28441 ft | 468 kts | 99° |
| 2026-05-04 12:21 | 51.34338 | -0.17504 | 28807 ft | 467 kts | 99° |
| 2026-05-04 12:21 | 51.34037 | -0.12340 | 29184 ft | 466 kts | 99° |
| 2026-05-04 12:21 | 51.33734 | -0.07179 | 29581 ft | 465 kts | 99° |
| 2026-05-04 12:22 | 51.33427 | -0.02047 | 29993 ft | 464 kts | 99° |
| 2026-05-04 12:22 | 51.33159 | 0.02354 | 30308 ft | 463 kts | 99° |
| 2026-05-04 12:22 | 51.32800 | 0.07454 | 30554 ft | 462 kts | 101° |
| 2026-05-04 12:22 | 51.32362 | 0.12532 | 30866 ft | 460 kts | 102° |
| 2026-05-04 12:23 | 51.31872 | 0.17582 | 31173 ft | 459 kts | 103° |
| 2026-05-04 12:23 | 51.31382 | 0.22356 | 31490 ft | 458 kts | 103° |
| 2026-05-04 12:23 | 51.30865 | 0.27377 | 31830 ft | 457 kts | 103° |
| 2026-05-04 12:23 | 51.30359 | 0.32382 | 32153 ft | 456 kts | 103° |
| 2026-05-04 12:24 | 51.29867 | 0.37382 | 32477 ft | 455 kts | 103° |
| 2026-05-04 12:24 | 51.29385 | 0.42368 | 32800 ft | 454 kts | 102° |
| 2026-05-04 12:24 | 51.28911 | 0.47349 | 33123 ft | 453 kts | 102° |
| 2026-05-04 12:24 | 51.28439 | 0.52318 | 33413 ft | 453 kts | 103° |
| 2026-05-04 12:25 | 51.27968 | 0.57219 | 33724 ft | 452 kts | 103° |
| 2026-05-04 12:25 | 51.27485 | 0.62177 | 34039 ft | 451 kts | 103° |
| 2026-05-04 12:25 | 51.26998 | 0.67111 | 34326 ft | 450 kts | 103° |
| 2026-05-04 12:25 | 51.26507 | 0.72042 | 34581 ft | 450 kts | 103° |
| 2026-05-04 12:26 | 51.26014 | 0.76978 | 34814 ft | 450 kts | 103° |
| 2026-05-04 12:26 | 51.25520 | 0.81924 | 34970 ft | 451 kts | 103° |
| 2026-05-04 12:26 | 51.24523 | 0.91860 | 35011 ft | 455 kts | 103° |
| 2026-05-04 12:27 | 51.23508 | 1.01827 | 35028 ft | 456 kts | 103° |
| 2026-05-04 12:27 | 51.22493 | 1.11752 | 35025 ft | 456 kts | 103° |
| 2026-05-04 12:28 | 51.21467 | 1.21737 | 35029 ft | 456 kts | 103° |
| 2026-05-04 12:28 | 51.20427 | 1.31722 | 35032 ft | 456 kts | 103° |
| 2026-05-04 12:29 | 51.19381 | 1.41640 | 35031 ft | 456 kts | 103° |
| 2026-05-04 12:29 | 51.18323 | 1.51618 | 35017 ft | 457 kts | 104° |
| 2026-05-04 12:30 | 51.17264 | 1.61599 | 35016 ft | 457 kts | 104° |
| 2026-05-04 12:30 | 51.16188 | 1.71582 | 35017 ft | 457 kts | 104° |
| 2026-05-04 12:31 | 51.15106 | 1.81492 | 35017 ft | 457 kts | 104° |
| 2026-05-04 12:31 | 51.14016 | 1.91476 | 34995 ft | 458 kts | 104° |
| 2026-05-04 12:32 | 51.12724 | 2.06572 | 35007 ft | 461 kts | 99° |
| 2026-05-04 12:33 | 51.12184 | 2.16756 | 35009 ft | 462 kts | 99° |
| 2026-05-04 12:33 | 51.11630 | 2.26863 | 35010 ft | 462 kts | 99° |
| 2026-05-04 12:34 | 51.11068 | 2.37044 | 34990 ft | 462 kts | 99° |
| 2026-05-04 12:34 | 51.10507 | 2.47226 | 34992 ft | 462 kts | 100° |
| 2026-05-04 12:35 | 51.09932 | 2.57405 | 34998 ft | 462 kts | 100° |
| 2026-05-04 12:35 | 51.09069 | 2.67423 | 34995 ft | 456 kts | 110° |
| 2026-05-04 12:36 | 51.07314 | 2.77075 | 34997 ft | 455 kts | 111° |
| 2026-05-04 12:36 | 51.05566 | 2.86738 | 34994 ft | 455 kts | 111° |
| 2026-05-04 12:37 | 51.03808 | 2.96407 | 34999 ft | 455 kts | 111° |
| 2026-05-04 12:37 | 51.02032 | 3.06065 | 34995 ft | 456 kts | 111° |
| 2026-05-04 12:38 | 51.00255 | 3.15663 | 34993 ft | 456 kts | 111° |
| 2026-05-04 12:38 | 50.98461 | 3.25312 | 34980 ft | 456 kts | 111° |
| 2026-05-04 12:39 | 50.96670 | 3.34975 | 34957 ft | 456 kts | 111° |
| 2026-05-04 12:39 | 50.94866 | 3.44636 | 34964 ft | 457 kts | 112° |
| 2026-05-04 12:40 | 50.93059 | 3.54238 | 34970 ft | 458 kts | 112° |
| 2026-05-04 12:40 | 50.91231 | 3.63906 | 34967 ft | 458 kts | 112° |
| 2026-05-04 12:41 | 50.89379 | 3.73578 | 34970 ft | 458 kts | 112° |
| 2026-05-04 12:41 | 50.87507 | 3.83228 | 34961 ft | 459 kts | 112° |
| 2026-05-04 12:42 | 50.85699 | 3.92508 | 34963 ft | 460 kts | 112° |
| 2026-05-04 12:42 | 50.83811 | 4.02186 | 34972 ft | 461 kts | 112° |
| 2026-05-04 12:43 | 50.81916 | 4.11852 | 34977 ft | 461 kts | 112° |
| 2026-05-04 12:43 | 50.80007 | 4.21538 | 34965 ft | 461 kts | 112° |
| 2026-05-04 12:44 | 50.78108 | 4.31133 | 34980 ft | 461 kts | 112° |
| 2026-05-04 12:44 | 50.76183 | 4.40786 | 34985 ft | 460 kts | 113° |
| 2026-05-04 12:45 | 50.74253 | 4.50421 | 34989 ft | 460 kts | 113° |
| 2026-05-04 12:45 | 50.72317 | 4.60043 | 34990 ft | 460 kts | 113° |
| 2026-05-04 12:46 | 50.70414 | 4.69695 | 34970 ft | 461 kts | 112° |
| 2026-05-04 12:46 | 50.68569 | 4.79312 | 34974 ft | 462 kts | 112° |
| 2026-05-04 12:47 | 50.66697 | 4.88987 | 34979 ft | 462 kts | 112° |
| 2026-05-04 12:47 | 50.64778 | 4.98645 | 34982 ft | 461 kts | 113° |
| 2026-05-04 12:48 | 50.63130 | 5.06626 | 34980 ft | 461 kts | 114° |
| 2026-05-04 12:48 | 50.60796 | 5.17786 | 34966 ft | 462 kts | 114° |
| 2026-05-04 12:49 | 50.58796 | 5.27403 | 34975 ft | 462 kts | 114° |
| 2026-05-04 12:49 | 50.57135 | 5.35394 | 34980 ft | 463 kts | 114° |
| 2026-05-04 12:50 | 50.55130 | 5.45009 | 34984 ft | 463 kts | 114° |
| 2026-05-04 12:50 | 50.52782 | 5.56185 | 34989 ft | 463 kts | 114° |
| 2026-05-04 12:51 | 50.51014 | 5.65947 | 34963 ft | 469 kts | 106° |
| 2026-05-04 12:51 | 50.49951 | 5.74306 | 34968 ft | 469 kts | 107° |
| 2026-05-04 12:52 | 50.48653 | 5.84345 | 34969 ft | 469 kts | 107° |
| 2026-05-04 12:52 | 50.47342 | 5.94355 | 34974 ft | 469 kts | 107° |
| 2026-05-04 12:53 | 50.46022 | 6.04379 | 34959 ft | 469 kts | 107° |
| 2026-05-04 12:53 | 50.44706 | 6.14335 | 34964 ft | 469 kts | 107° |
| 2026-05-04 12:54 | 50.43365 | 6.24362 | 34981 ft | 470 kts | 107° |
| 2026-05-04 12:54 | 50.42015 | 6.34378 | 34969 ft | 470 kts | 107° |
| 2026-05-04 12:55 | 50.40657 | 6.44414 | 34978 ft | 470 kts | 107° |
| 2026-05-04 12:55 | 50.39278 | 6.54424 | 34961 ft | 470 kts | 107° |
| 2026-05-04 12:56 | 50.37884 | 6.64373 | 34964 ft | 470 kts | 107° |
| 2026-05-04 12:56 | 50.36480 | 6.74372 | 34990 ft | 470 kts | 107° |
| 2026-05-04 12:57 | 50.35079 | 6.84370 | 35003 ft | 470 kts | 107° |
| 2026-05-04 12:57 | 50.33663 | 6.94362 | 34986 ft | 470 kts | 107° |
| 2026-05-04 12:58 | 50.32249 | 7.04288 | 35000 ft | 471 kts | 107° |
| 2026-05-04 12:58 | 50.30810 | 7.14282 | 35002 ft | 471 kts | 107° |
| 2026-05-04 12:59 | 50.29361 | 7.24289 | 35001 ft | 472 kts | 107° |
| 2026-05-04 12:59 | 50.27914 | 7.34281 | 34995 ft | 472 kts | 107° |
| 2026-05-04 13:00 | 50.26450 | 7.44289 | 34976 ft | 472 kts | 107° |
| 2026-05-04 13:00 | 50.24977 | 7.54215 | 34969 ft | 473 kts | 108° |
| 2026-05-04 13:01 | 50.23486 | 7.64220 | 34972 ft | 473 kts | 107° |
| 2026-05-04 13:01 | 50.21995 | 7.74241 | 34979 ft | 474 kts | 107° |
| 2026-05-04 13:02 | 50.20497 | 7.84258 | 34966 ft | 474 kts | 108° |
| 2026-05-04 13:02 | 50.18989 | 7.94286 | 34971 ft | 475 kts | 108° |
| 2026-05-04 13:03 | 50.17474 | 8.04261 | 34975 ft | 476 kts | 108° |
| 2026-05-04 13:03 | 50.15934 | 8.14310 | 34979 ft | 476 kts | 108° |
| 2026-05-04 13:04 | 50.14398 | 8.24347 | 34984 ft | 477 kts | 108° |
| 2026-05-04 13:04 | 50.12848 | 8.34395 | 34980 ft | 477 kts | 108° |
| 2026-05-04 13:05 | 50.11296 | 8.44369 | 34969 ft | 477 kts | 108° |
| 2026-05-04 13:05 | 50.09719 | 8.54406 | 34983 ft | 477 kts | 108° |
| 2026-05-04 13:06 | 50.08132 | 8.64440 | 34994 ft | 477 kts | 108° |
| 2026-05-04 13:06 | 50.06364 | 8.74360 | 34996 ft | 472 kts | 117° |
| 2026-05-04 13:07 | 50.03165 | 8.82987 | 34996 ft | 459 kts | 134° |
| 2026-05-04 13:07 | 49.98700 | 8.89887 | 34992 ft | 451 kts | 143° |
| 2026-05-04 13:08 | 49.94047 | 8.96446 | 34987 ft | 452 kts | 143° |
| 2026-05-04 13:08 | 49.89378 | 9.03020 | 34960 ft | 455 kts | 143° |
| 2026-05-04 13:09 | 49.84703 | 9.09592 | 34952 ft | 459 kts | 143° |
| 2026-05-04 13:09 | 49.79946 | 9.16255 | 34977 ft | 464 kts | 142° |
| 2026-05-04 13:10 | 49.75151 | 9.22954 | 34996 ft | 465 kts | 143° |
| 2026-05-04 13:10 | 49.70344 | 9.29643 | 35002 ft | 465 kts | 143° |
| 2026-05-04 13:11 | 49.65570 | 9.36270 | 35004 ft | 465 kts | 143° |
| 2026-05-04 13:11 | 49.60864 | 9.43137 | 35003 ft | 469 kts | 136° |
| 2026-05-04 13:12 | 49.56556 | 9.50700 | 34981 ft | 470 kts | 135° |
| 2026-05-04 13:12 | 49.52243 | 9.58263 | 34988 ft | 470 kts | 136° |
| 2026-05-04 13:13 | 49.47953 | 9.65762 | 34986 ft | 470 kts | 136° |
| 2026-05-04 13:13 | 49.43624 | 9.73322 | 34989 ft | 470 kts | 136° |
| 2026-05-04 13:14 | 49.39287 | 9.80849 | 34997 ft | 471 kts | 136° |
| 2026-05-04 13:14 | 49.34941 | 9.88358 | 34982 ft | 471 kts | 136° |
| 2026-05-04 13:15 | 49.30594 | 9.95861 | 34976 ft | 471 kts | 136° |
| 2026-05-04 13:15 | 49.26264 | 10.03316 | 34983 ft | 471 kts | 136° |
| 2026-05-04 13:16 | 49.21902 | 10.10803 | 34989 ft | 472 kts | 136° |
| 2026-05-04 13:16 | 49.17524 | 10.18279 | 35000 ft | 472 kts | 136° |
| 2026-05-04 13:17 | 49.13138 | 10.25732 | 34989 ft | 472 kts | 136° |
| 2026-05-04 13:17 | 49.08686 | 10.32984 | 35001 ft | 471 kts | 137° |
| 2026-05-04 13:18 | 49.04145 | 10.40173 | 34990 ft | 471 kts | 137° |
| 2026-05-04 13:18 | 48.99616 | 10.47362 | 35002 ft | 471 kts | 137° |
| 2026-05-04 13:19 | 48.95089 | 10.54577 | 35005 ft | 471 kts | 137° |
| 2026-05-04 13:19 | 48.90568 | 10.61770 | 34995 ft | 471 kts | 137° |
| 2026-05-04 13:20 | 48.86073 | 10.68913 | 35002 ft | 471 kts | 137° |
| 2026-05-04 13:20 | 48.81543 | 10.76079 | 35000 ft | 471 kts | 137° |
| 2026-05-04 13:21 | 48.77007 | 10.83235 | 34999 ft | 471 kts | 137° |
| 2026-05-04 13:21 | 48.72460 | 10.90373 | 35002 ft | 470 kts | 137° |
| 2026-05-04 13:22 | 48.67947 | 10.97417 | 34994 ft | 470 kts | 137° |
| 2026-05-04 13:22 | 48.63386 | 11.04500 | 34991 ft | 470 kts | 137° |
| 2026-05-04 13:23 | 48.58817 | 11.11564 | 34993 ft | 470 kts | 137° |
| 2026-05-04 13:23 | 48.54359 | 11.18816 | 34990 ft | 471 kts | 134° |
| 2026-05-04 13:24 | 48.50120 | 11.26336 | 34997 ft | 469 kts | 133° |
| 2026-05-04 13:24 | 48.45947 | 11.33776 | 35006 ft | 466 kts | 134° |
| 2026-05-04 13:25 | 48.39590 | 11.44774 | 35000 ft | 463 kts | 134° |
| 2026-05-04 13:25 | 48.35340 | 11.52041 | 34999 ft | 462 kts | 134° |
| 2026-05-04 13:26 | 48.31108 | 11.59277 | 34892 ft | 460 kts | 134° |
| 2026-05-04 13:26 | 48.28916 | 11.62711 | 34009 ft | 462 kts | 142° |
| 2026-05-04 13:26 | 48.26392 | 11.65653 | 32637 ft | 458 kts | 150° |
| 2026-05-04 13:27 | 48.23596 | 11.67939 | 31020 ft | 459 kts | 160° |
| 2026-05-04 13:27 | 48.20586 | 11.69520 | 29301 ft | 460 kts | 168° |
| 2026-05-04 13:27 | 48.17464 | 11.70567 | 27901 ft | 456 kts | 170° |
| 2026-05-04 13:27 | 48.14422 | 11.71587 | 26946 ft | 448 kts | 169° |
| 2026-05-04 13:28 | 48.11354 | 11.72639 | 25735 ft | 454 kts | 169° |
| 2026-05-04 13:28 | 48.08258 | 11.73712 | 24564 ft | 459 kts | 169° |
| 2026-05-04 13:28 | 48.05135 | 11.74797 | 23407 ft | 463 kts | 169° |
| 2026-05-04 13:28 | 48.02034 | 11.75871 | 22346 ft | 462 kts | 169° |
| 2026-05-04 13:29 | 47.98925 | 11.76942 | 21528 ft | 456 kts | 169° |
| 2026-05-04 13:29 | 47.95843 | 11.77996 | 20680 ft | 451 kts | 169° |
| 2026-05-04 13:29 | 47.92801 | 11.79025 | 19863 ft | 447 kts | 169° |
| 2026-05-04 13:29 | 47.89760 | 11.79766 | 19180 ft | 438 kts | 176° |
| 2026-05-04 13:30 | 47.86723 | 11.79813 | 18371 ft | 434 kts | 184° |
| 2026-05-04 13:30 | 47.83740 | 11.79614 | 17699 ft | 426 kts | 184° |
| 2026-05-04 13:30 | 47.80788 | 11.79435 | 16907 ft | 422 kts | 183° |
| 2026-05-04 13:30 | 47.77874 | 11.79272 | 16174 ft | 417 kts | 183° |
| 2026-05-04 13:31 | 47.74984 | 11.79116 | 15467 ft | 413 kts | 183° |
| 2026-05-04 13:31 | 47.72166 | 11.79034 | 14770 ft | 409 kts | 179° |
| 2026-05-04 13:31 | 47.69361 | 11.79578 | 14113 ft | 406 kts | 168° |
| 2026-05-04 13:31 | 47.66714 | 11.80846 | 13931 ft | 391 kts | 160° |
| 2026-05-04 13:32 | 47.64240 | 11.82256 | 13793 ft | 373 kts | 162° |
| 2026-05-04 13:32 | 47.61866 | 11.83582 | 13670 ft | 357 kts | 162° |
| 2026-05-04 13:32 | 47.59580 | 11.84843 | 13531 ft | 344 kts | 162° |
| 2026-05-04 13:32 | 47.57375 | 11.86061 | 13393 ft | 332 kts | 162° |
| 2026-05-04 13:33 | 47.55253 | 11.87237 | 13264 ft | 320 kts | 162° |
| 2026-05-04 13:33 | 47.53200 | 11.88376 | 13135 ft | 310 kts | 162° |
| 2026-05-04 13:33 | 47.51235 | 11.89468 | 13008 ft | 301 kts | 162° |
| 2026-05-04 13:33 | 47.49281 | 11.90554 | 12540 ft | 303 kts | 162° |
| 2026-05-04 13:34 | 47.47318 | 11.91643 | 12313 ft | 298 kts | 162° |
| 2026-05-04 13:34 | 47.45396 | 11.92716 | 11898 ft | 298 kts | 162° |
| 2026-05-04 13:34 | 47.43404 | 11.93822 | 11093 ft | 311 kts | 162° |
| 2026-05-04 13:34 | 47.41283 | 11.94436 | 10543 ft | 311 kts | 184° |
| 2026-05-04 13:35 | 47.39228 | 11.93728 | 10391 ft | 299 kts | 207° |
| 2026-05-04 13:35 | 47.36520 | 11.89605 | 10257 ft | 276 kts | 243° |
| 2026-05-04 13:35 | 47.35948 | 11.86987 | 10138 ft | 271 kts | 257° |
| 2026-05-04 13:36 | 47.35864 | 11.84241 | 10010 ft | 266 kts | 272° |
| 2026-05-04 13:36 | 47.36255 | 11.81607 | 9889 ft | 262 kts | 287° |
| 2026-05-04 13:36 | 47.37072 | 11.79239 | 9756 ft | 257 kts | 301° |
| 2026-05-04 13:36 | 47.38248 | 11.77275 | 9575 ft | 255 kts | 316° |
| 2026-05-04 13:37 | 47.39711 | 11.75815 | 9486 ft | 255 kts | 332° |
| 2026-05-04 13:37 | 47.41384 | 11.74926 | 9490 ft | 255 kts | 346° |
| 2026-05-04 13:37 | 47.43152 | 11.74681 | 9500 ft | 257 kts | 2° |
| 2026-05-04 13:37 | 47.44892 | 11.75090 | 9487 ft | 258 kts | 17° |
| 2026-05-04 13:38 | 47.46525 | 11.76145 | 9470 ft | 257 kts | 31° |
| 2026-05-04 13:38 | 47.47942 | 11.77770 | 9486 ft | 261 kts | 44° |
| 2026-05-04 13:38 | 47.49213 | 11.79679 | 9477 ft | 259 kts | 48° |
| 2026-05-04 13:38 | 47.50408 | 11.81670 | 9476 ft | 259 kts | 50° |
| 2026-05-04 13:39 | 47.51587 | 11.83700 | 9477 ft | 261 kts | 50° |
| 2026-05-04 13:39 | 47.52596 | 11.85905 | 9471 ft | 258 kts | 70° |
| 2026-05-04 13:39 | 47.52926 | 11.88460 | 9476 ft | 252 kts | 97° |
| 2026-05-04 13:39 | 47.52539 | 11.90898 | 9442 ft | 247 kts | 120° |
| 2026-05-04 13:40 | 47.51535 | 11.92890 | 9237 ft | 239 kts | 144° |
| 2026-05-04 13:40 | 47.50123 | 11.94081 | 9013 ft | 232 kts | 166° |
| 2026-05-04 13:40 | 47.48551 | 11.94382 | 8776 ft | 227 kts | 185° |
| 2026-05-04 13:40 | 47.46970 | 11.94265 | 8547 ft | 227 kts | 185° |
| 2026-05-04 13:41 | 47.45395 | 11.94129 | 8321 ft | 226 kts | 190° |
| 2026-05-04 13:41 | 47.43894 | 11.93522 | 8084 ft | 223 kts | 205° |
| 2026-05-04 13:41 | 47.42566 | 11.92331 | 7880 ft | 224 kts | 220° |
| 2026-05-04 13:42 | 47.40647 | 11.88799 | 7439 ft | 224 kts | 234° |
| 2026-05-04 13:42 | 47.39756 | 11.86907 | 7222 ft | 225 kts | 234° |
| 2026-05-04 13:42 | 47.38861 | 11.85016 | 6998 ft | 225 kts | 233° |
| 2026-05-04 13:42 | 47.37968 | 11.83128 | 6784 ft | 225 kts | 234° |
| 2026-05-04 13:43 | 47.37280 | 11.81099 | 6528 ft | 213 kts | 245° |
| 2026-05-04 13:43 | 47.36751 | 11.79163 | 6342 ft | 198 kts | 246° |
| 2026-05-04 13:43 | 47.36238 | 11.77309 | 6172 ft | 192 kts | 246° |
| 2026-05-04 13:43 | 47.35739 | 11.75507 | 5949 ft | 186 kts | 247° |
| 2026-05-04 13:44 | 47.35261 | 11.73785 | 5749 ft | 178 kts | 246° |
| 2026-05-04 13:44 | 47.34801 | 11.72138 | 5604 ft | 170 kts | 247° |
| 2026-05-04 13:44 | 47.34363 | 11.70569 | 5453 ft | 166 kts | 247° |
| 2026-05-04 13:44 | 47.33917 | 11.68971 | 5308 ft | 174 kts | 246° |
| 2026-05-04 13:45 | 47.33452 | 11.67303 | 5151 ft | 175 kts | 245° |
| 2026-05-04 13:45 | 47.32989 | 11.65641 | 5010 ft | 176 kts | 244° |
| 2026-05-04 13:45 | 47.32521 | 11.63960 | 4862 ft | 178 kts | 245° |
| 2026-05-04 13:45 | 47.32050 | 11.62273 | 4712 ft | 176 kts | 246° |
| 2026-05-04 13:46 | 47.31595 | 11.60634 | 4597 ft | 167 kts | 245° |
| 2026-05-04 13:46 | 47.31168 | 11.59106 | 4442 ft | 161 kts | 245° |
| 2026-05-04 13:46 | 47.30743 | 11.57613 | 4262 ft | 156 kts | 245° |
| 2026-05-04 13:46 | 47.30331 | 11.56161 | 4157 ft | 153 kts | 245° |
| 2026-05-04 13:47 | 47.29954 | 11.54713 | 4084 ft | 151 kts | 246° |
| 2026-05-04 13:47 | 47.29589 | 11.53275 | 3925 ft | 149 kts | 247° |
| 2026-05-04 13:47 | 47.29219 | 11.51855 | 3774 ft | 149 kts | 249° |
| 2026-05-04 13:47 | 47.28838 | 11.50453 | 3724 ft | 143 kts | 243° |
| 2026-05-04 13:48 | 47.28448 | 11.49100 | 3710 ft | 144 kts | 241° |
| 2026-05-04 13:48 | 47.28022 | 11.47779 | 3610 ft | 142 kts | 243° |
| 2026-05-04 13:48 | 47.27613 | 11.46489 | 3457 ft | 140 kts | 245° |
| 2026-05-04 13:48 | 47.27349 | 11.45099 | 3360 ft | 142 kts | 255° |
| 2026-05-04 13:49 | 47.26954 | 11.43767 | 3358 ft | 144 kts | 237° |
| 2026-05-04 13:49 | 47.26359 | 11.42603 | 3368 ft | 143 kts | 230° |
| 2026-05-04 13:49 | 47.25748 | 11.41453 | 3468 ft | 140 kts | 232° |
| 2026-05-04 13:49 | 47.25196 | 11.40256 | 3555 ft | 141 kts | 233° |
| 2026-05-04 13:50 | 47.24658 | 11.39073 | 3714 ft | 144 kts | 234° |
| 2026-05-04 13:50 | 47.24125 | 11.37826 | 3799 ft | 146 kts | 243° |
| 2026-05-04 13:50 | 47.23838 | 11.36376 | 3809 ft | 149 kts | 253° |
| 2026-05-04 13:50 | 47.23671 | 11.34893 | 3701 ft | 145 kts | 258° |
| 2026-05-04 13:51 | 47.23616 | 11.33393 | 3546 ft | 146 kts | 268° |
| 2026-05-04 13:51 | 47.23706 | 11.31925 | 3410 ft | 148 kts | 285° |
| 2026-05-04 13:51 | 47.24422 | 11.30837 | 3086 ft | 159 kts | 341° |
| 2026-05-04 13:51 | 47.25491 | 11.31089 | 2635 ft | 162 kts | 48° |
| 2026-05-04 13:52 | 47.25996 | 11.34104 | 1991 ft | 151 kts | 82° |
| 2026-05-04 13:52 | 47.26184 | 11.35603 | 2729 ft | 151 kts | 89° |
| 2026-05-04 13:52 | 47.26234 | 11.37196 | 3325 ft | 166 kts | 98° |
| 2026-05-04 13:53 | 47.26196 | 11.39082 | 3893 ft | 197 kts | 96° |
| 2026-05-04 13:53 | 47.26148 | 11.41162 | 4703 ft | 211 kts | 93° |
| 2026-05-04 13:53 | 47.26107 | 11.43428 | 5464 ft | 235 kts | 96° |
| 2026-05-04 13:54 | 47.26444 | 11.48584 | 6636 ft | 256 kts | 70° |
| 2026-05-04 13:54 | 47.27274 | 11.50891 | 7161 ft | 255 kts | 61° |
| 2026-05-04 13:54 | 47.29197 | 11.55282 | 8251 ft | 255 kts | 59° |
| 2026-05-04 13:55 | 47.30125 | 11.57511 | 8789 ft | 257 kts | 62° |
| 2026-05-04 13:55 | 47.31888 | 11.62110 | 9923 ft | 262 kts | 64° |
| 2026-05-04 13:55 | 47.32650 | 11.64547 | 10441 ft | 264 kts | 69° |
| 2026-05-04 13:56 | 47.33388 | 11.67102 | 10171 ft | 275 kts | 70° |
| 2026-05-04 13:56 | 47.34119 | 11.69724 | 9756 ft | 278 kts | 71° |
| 2026-05-04 13:56 | 47.35560 | 11.74945 | 9158 ft | 271 kts | 71° |
| 2026-05-04 13:57 | 47.36262 | 11.77471 | 8882 ft | 262 kts | 71° |
| 2026-05-04 13:57 | 47.37034 | 11.79852 | 8590 ft | 253 kts | 52° |
| 2026-05-04 13:58 | 47.41353 | 11.79616 | 7854 ft | 232 kts | 292° |
| 2026-05-04 13:58 | 47.40925 | 11.75316 | 7367 ft | 223 kts | 225° |
| 2026-05-04 13:58 | 47.39641 | 11.74151 | 7116 ft | 219 kts | 197° |
| 2026-05-04 13:59 | 47.38162 | 11.73488 | 6882 ft | 223 kts | 197° |
| 2026-05-04 13:59 | 47.36684 | 11.72791 | 6646 ft | 223 kts | 198° |
| 2026-05-04 13:59 | 47.34292 | 11.70124 | 6172 ft | 224 kts | 238° |
| 2026-05-04 14:00 | 47.33651 | 11.67995 | 5916 ft | 229 kts | 246° |
| 2026-05-04 14:00 | 47.32455 | 11.63675 | 5429 ft | 227 kts | 245° |
| 2026-05-04 14:00 | 47.31849 | 11.61513 | 5187 ft | 228 kts | 245° |
| 2026-05-04 14:01 | 47.31239 | 11.59345 | 4955 ft | 231 kts | 245° |
| 2026-05-04 14:01 | 47.30621 | 11.57147 | 4703 ft | 233 kts | 246° |
| 2026-05-04 14:01 | 47.29476 | 11.53042 | 4440 ft | 196 kts | 247° |
| 2026-05-04 14:02 | 47.28967 | 11.51236 | 4253 ft | 182 kts | 245° |
| 2026-05-04 14:02 | 47.28477 | 11.49592 | 4057 ft | 173 kts | 243° |
| 2026-05-04 14:02 | 47.27972 | 11.48023 | 3877 ft | 165 kts | 242° |
| 2026-05-04 14:02 | 47.27519 | 11.46555 | 3892 ft | 155 kts | 243° |
| 2026-05-04 14:03 | 47.27092 | 11.45120 | 3879 ft | 152 kts | 245° |
| 2026-05-04 14:03 | 47.26603 | 11.43791 | 3791 ft | 144 kts | 231° |
| 2026-05-04 14:03 | 47.26063 | 11.42547 | 3672 ft | 142 kts | 234° |
| 2026-05-04 14:03 | 47.25533 | 11.41304 | 3660 ft | 142 kts | 235° |
| 2026-05-04 14:04 | 47.24498 | 11.38893 | 3481 ft | 138 kts | 234° |
| 2026-05-04 14:04 | 47.23943 | 11.37737 | 3536 ft | 138 kts | 231° |
| 2026-05-04 14:04 | 47.23608 | 11.36389 | 3585 ft | 146 kts | 257° |
| 2026-05-04 14:05 | 47.23510 | 11.33449 | 3508 ft | 146 kts | 262° |
| 2026-05-04 14:05 | 47.23512 | 11.31991 | 3478 ft | 143 kts | 262° |
| 2026-05-04 14:05 | 47.23487 | 11.30548 | 3465 ft | 139 kts | 261° |
| 2026-05-04 14:06 | 47.23656 | 11.29100 | 3306 ft | 159 kts | 302° |
| 2026-05-04 14:06 | 47.24704 | 11.28530 | 2944 ft | 174 kts | 11° |
| 2026-05-04 14:06 | 47.25472 | 11.29672 | 2598 ft | 158 kts | 76° |
| 2026-05-04 14:06 | 47.25709 | 11.31215 | 2403 ft | 156 kts | 86° |
| 2026-05-04 14:07 | 47.25850 | 11.32789 | 2069 ft | 152 kts | 86° |
| 2026-05-04 14:07 | 47.25995 | 11.34222 | 1900 ft | 118 kts | 81° |
| 2026-05-04 14:07 | 47.26083 | 11.34961 | 1907 ft | 28 kts | 80° |
| 2026-05-04 14:07 | 47.26100 | 11.35209 | 1913 ft | 14 kts | 120° |
| 2026-05-04 14:08 | 47.26021 | 11.35268 | 1913 ft | 13 kts | 166° |
| 2026-05-04 14:08 | 47.25942 | 11.35288 | 1910 ft | 8 kts | 174° |
| 2026-05-04 14:08 | 47.25902 | 11.35268 | 1914 ft | 6 kts | 247° |
| 2026-05-04 14:08 | 47.25896 | 11.35212 | 1914 ft | 5 kts | 264° |
| 2026-05-04 14:09 | 47.25887 | 11.35136 | 1908 ft | 3 kts | 258° |
| 2026-05-04 14:09 | 47.25884 | 11.35116 | 1914 ft | 2 kts | 258° |
| 2026-05-04 14:10 | 47.25879 | 11.35084 | 1900 ft | 7 kts | 257° |
| 2026-05-04 14:10 | 47.25870 | 11.34993 | 1914 ft | 11 kts | 264° |
| 2026-05-04 14:10 | 47.25863 | 11.34907 | 1907 ft | 11 kts | 263° |
| 2026-05-04 14:10 | 47.25820 | 11.34865 | 1911 ft | 7 kts | 169° |
| 2026-05-04 14:11 | 47.25802 | 11.34870 | 1905 ft | 0 kts | 170° |
| 2026-05-04 14:14 | 47.25803 | 11.34870 | 1905 ft | 0 kts | 170° |